logo
Search for airport 
image banner adimage banner adimage banner ad
image banner ad

FASS - Sishen

Located in Kathu, South Africa

ICAO - FASS, IATA - SIS

Data provided by Airmate  

General information

Coordinates: S27°39'0" E23°0'0"
Elevation is 3848 feet MSL.
Magnetic variation is -19° East
View others Airports in Northern Cape

Operational data

Special qualification required
Current time UTC:
Current local time:
Weather at : - ( 0 km )
METAR: YFRT 230402Z AUTO 17017G27KT 9999 // SCT045 21/08 Q1025 RF00.0/000.0
View NOTAMs / SUP AIP / TFR affecting this airport [VIEW]
Communications frequencies: [VIEW]

Runways:

RWY identifierQFULength (ft)Width (ft)SurfaceLDA (ft)
17154°764871ASPH7628
35334°764871ASPH7628

Airport contact information

Address: Kathu South Africa

Satellite view of FASS